createdAt,value
2018-08-11T00:00:34.837Z,5.90
2018-08-11T00:03:04.941Z,6.87
2018-08-11T00:05:34.384Z,5.70
2018-08-11T00:08:03.829Z,5.70
2018-08-11T00:10:33.107Z,6.40
2018-08-11T00:13:02.399Z,6.47
2018-08-11T00:15:31.939Z,6.40
2018-08-11T00:18:01.471Z,6.13
2018-08-11T00:20:30.924Z,6.20
2018-08-11T00:23:00.263Z,6.03
2018-08-11T00:25:29.543Z,6.00
2018-08-11T00:27:58.843Z,5.83
2018-08-11T00:30:28.370Z,7.00
2018-08-11T00:32:57.700Z,6.60
2018-08-11T00:35:27.019Z,6.00
2018-08-11T00:37:56.361Z,6.40
2018-08-11T00:40:44.268Z,6.60
2018-08-11T00:43:13.858Z,5.80
2018-08-11T00:45:43.382Z,6.80
2018-08-11T00:48:12.763Z,6.87
2018-08-11T00:50:42.330Z,5.67
2018-08-11T00:53:11.976Z,6.30
2018-08-11T00:55:41.396Z,6.43
2018-08-11T00:58:10.747Z,7.87
2018-08-11T01:00:40.114Z,6.10
2018-08-11T01:03:09.631Z,6.40
2018-08-11T01:05:39.021Z,6.33
2018-08-11T01:08:08.329Z,6.93
2018-08-11T01:10:37.664Z,7.00
2018-08-11T01:13:07.519Z,7.63
2018-08-11T01:15:37.107Z,7.20
2018-08-11T01:18:06.914Z,6.70
2018-08-11T01:20:36.242Z,7.73
2018-08-11T01:23:05.586Z,7.00
2018-08-11T01:25:34.891Z,7.30
2018-08-11T01:28:04.234Z,6.50
2018-08-11T01:30:33.654Z,7.20
2018-08-11T01:33:03.035Z,7.00
2018-08-11T01:35:32.803Z,7.17
2018-08-11T01:38:02.125Z,7.27
2018-08-11T01:40:31.543Z,8.00
2018-08-11T01:43:00.984Z,6.87
2018-08-11T01:45:30.276Z,7.47
2018-08-11T01:47:59.612Z,7.63
2018-08-11T01:50:29.042Z,6.97
2018-08-11T01:52:58.335Z,6.60
2018-08-11T01:55:27.686Z,7.03
2018-08-11T01:57:57.533Z,6.70
2018-08-11T02:00:27.059Z,7.10
2018-08-11T02:02:56.562Z,6.33
2018-08-11T02:05:25.928Z,7.23
2018-08-11T02:07:55.371Z,6.70
2018-08-11T02:10:24.694Z,6.33
2018-08-11T02:12:54.045Z,6.30
2018-08-11T02:15:23.353Z,6.03
2018-08-11T02:17:53.185Z,5.93
2018-08-11T02:20:22.864Z,5.60
2018-08-11T02:22:52.296Z,5.30
2018-08-11T02:25:21.673Z,5.60
2018-08-11T02:27:51.207Z,6.83
2018-08-11T02:30:20.747Z,5.83
2018-08-11T02:32:50.212Z,5.70
2018-08-11T02:35:19.608Z,5.90
2018-08-11T02:37:49.033Z,5.43
2018-08-11T02:40:18.322Z,5.40
2018-08-11T02:42:48.205Z,4.97
2018-08-11T02:45:18.119Z,5.00
2018-08-11T02:47:47.833Z,5.43
2018-08-11T02:50:17.201Z,5.43
2018-08-11T02:52:46.548Z,4.37
2018-08-11T02:55:15.958Z,5.47
2018-08-11T02:57:45.317Z,4.90
2018-08-11T03:00:14.703Z,4.67
2018-08-11T03:02:44.055Z,4.70
2018-08-11T03:05:14.082Z,5.93
2018-08-11T03:07:43.487Z,4.47
2018-08-11T03:10:13.082Z,4.53
2018-08-11T03:12:42.614Z,4.27
2018-08-11T03:15:13.339Z,4.70
2018-08-11T03:17:42.937Z,5.40
2018-08-11T03:20:15.104Z,4.20
2018-08-11T03:22:45.364Z,4.23
2018-08-11T03:25:14.972Z,3.93
2018-08-11T03:27:44.539Z,4.97
2018-08-11T03:30:13.854Z,4.40
2018-08-11T03:32:43.724Z,4.40
2018-08-11T03:35:13.198Z,4.50
2018-08-11T03:37:42.705Z,4.63
2018-08-11T03:40:12.240Z,4.27
2018-08-11T03:42:42.569Z,4.50
2018-08-11T03:45:12.682Z,4.80
2018-08-11T03:47:42.143Z,5.00
2018-08-11T03:50:11.413Z,4.27
2018-08-11T03:52:40.952Z,4.50
2018-08-11T03:55:10.624Z,4.33
2018-08-11T03:57:40.237Z,6.30
2018-08-11T04:00:11.250Z,4.67
2018-08-11T04:02:40.871Z,3.33
2018-08-11T04:05:10.559Z,2.97
2018-08-11T04:07:40.065Z,3.50
2018-08-11T04:10:09.365Z,2.97
2018-08-11T04:12:38.867Z,2.50
2018-08-11T04:15:08.235Z,2.87
2018-08-11T04:17:39.418Z,2.90
2018-08-11T04:20:10.661Z,2.87
2018-08-11T04:22:39.987Z,2.33
2018-08-11T04:25:10.253Z,3.00
2018-08-11T04:27:39.608Z,2.77
2018-08-11T04:30:10.634Z,2.87
2018-08-11T04:32:40.405Z,3.20
2018-08-11T04:35:09.943Z,2.70
2018-08-11T04:37:39.321Z,2.43
2018-08-11T04:40:08.652Z,3.23
2018-08-11T04:42:37.980Z,3.30
2018-08-11T04:45:09.054Z,2.70
2018-08-11T04:47:38.662Z,2.80
2018-08-11T04:50:08.171Z,2.77
2018-08-11T04:52:37.570Z,3.20
2018-08-11T04:55:07.009Z,2.83
2018-08-11T04:57:36.580Z,3.20
2018-08-11T05:00:07.674Z,2.90
2018-08-11T05:02:37.202Z,2.67
2018-08-11T05:05:07.112Z,3.23
2018-08-11T05:07:37.161Z,2.73
2018-08-11T05:10:07.243Z,2.80
2018-08-11T05:12:36.955Z,2.90
2018-08-11T05:15:07.298Z,2.80
2018-08-11T05:17:36.677Z,3.57
2018-08-11T05:20:06.149Z,3.47
2018-08-11T05:22:35.725Z,3.57
2018-08-11T05:25:05.100Z,3.67
2018-08-11T05:27:34.594Z,3.50
2018-08-11T05:30:04.939Z,3.50
2018-08-11T05:32:34.328Z,3.47
2018-08-11T05:35:03.825Z,3.80
2018-08-11T05:37:33.194Z,3.50
2018-08-11T05:40:02.502Z,3.93
2018-08-11T05:42:31.825Z,3.03
2018-08-11T05:45:01.133Z,4.00
2018-08-11T05:47:30.428Z,4.07
2018-08-11T05:49:59.710Z,3.70
2018-08-11T05:52:29.173Z,3.60
2018-08-11T05:54:58.497Z,3.23
2018-08-11T05:57:27.803Z,2.90
2018-08-11T05:59:57.142Z,3.23
2018-08-11T06:02:26.443Z,3.00
2018-08-11T06:04:55.787Z,2.60
2018-08-11T06:07:26.137Z,2.60
2018-08-11T06:09:55.462Z,2.57
2018-08-11T06:12:24.816Z,2.23
2018-08-11T06:14:54.525Z,2.30
2018-08-11T06:17:23.851Z,1.90
2018-08-11T06:19:53.161Z,1.87
2018-08-11T06:22:22.605Z,2.10
2018-08-11T06:24:51.899Z,2.07
2018-08-11T06:27:21.383Z,1.90
2018-08-11T06:29:50.790Z,1.80
2018-08-11T06:32:20.165Z,2.23
2018-08-11T06:34:49.482Z,2.07
2018-08-11T06:37:19.163Z,1.80
2018-08-11T06:39:48.650Z,1.60
2018-08-11T06:42:17.970Z,1.40
2018-08-11T06:44:47.485Z,1.80
2018-08-11T06:47:16.823Z,1.90
2018-08-11T06:49:46.330Z,3.07
2018-08-11T06:52:15.733Z,6.30
2018-08-11T06:54:45.608Z,4.40
2018-08-11T06:57:15.059Z,1.70
2018-08-11T06:59:44.707Z,4.90
2018-08-11T07:02:14.167Z,1.50
2018-08-11T07:04:43.533Z,1.90
2018-08-11T07:07:12.869Z,2.67
2018-08-11T07:09:42.140Z,2.10
2018-08-11T07:12:11.455Z,1.63
2018-08-11T07:14:40.874Z,2.27
2018-08-11T07:17:10.159Z,1.90
2018-08-11T07:19:39.513Z,1.60
2018-08-11T07:22:09.144Z,1.43
2018-08-11T07:24:38.421Z,1.43
2018-08-11T07:27:08.147Z,1.60
2018-08-11T07:29:37.875Z,3.37
2018-08-11T07:32:07.233Z,3.47
2018-08-11T07:34:36.560Z,3.07
2018-08-11T07:37:06.004Z,2.10
2018-08-11T07:39:35.348Z,1.73
2018-08-11T07:42:04.750Z,1.77
2018-08-11T07:44:34.277Z,2.07
2018-08-11T07:47:03.579Z,1.70
2018-08-11T07:49:32.907Z,2.30
2018-08-11T07:52:02.275Z,5.07
2018-08-11T07:54:31.636Z,2.70
2018-08-11T07:57:00.985Z,2.10
2018-08-11T07:59:30.392Z,1.77
2018-08-11T08:01:59.796Z,2.00
2018-08-11T08:04:29.178Z,1.33
2018-08-11T08:06:58.699Z,2.43
2018-08-11T08:09:28.005Z,2.10
2018-08-11T08:11:57.454Z,1.30
2018-08-11T08:14:26.854Z,1.50
2018-08-11T08:16:56.286Z,1.30
2018-08-11T08:19:25.665Z,1.10
2018-08-11T08:21:55.264Z,1.77
2018-08-11T08:24:24.711Z,1.70
2018-08-11T08:26:54.464Z,1.80
2018-08-11T08:29:24.326Z,2.70
2018-08-11T08:31:53.668Z,1.90
2018-08-11T08:34:23.039Z,2.50
2018-08-11T08:36:52.812Z,2.60
2018-08-11T08:39:22.479Z,3.27
2018-08-11T08:41:51.905Z,4.00
2018-08-11T08:44:21.286Z,2.80
2018-08-11T08:46:50.681Z,2.70
2018-08-11T08:49:20.025Z,2.40
2018-08-11T08:51:49.856Z,2.10
2018-08-11T08:54:19.258Z,2.50
2018-08-11T08:56:48.665Z,3.23
2018-08-11T08:59:18.214Z,2.67
2018-08-11T09:01:47.710Z,2.70
2018-08-11T09:04:17.090Z,2.67
2018-08-11T09:06:46.570Z,1.97
2018-08-11T09:09:15.988Z,2.47
2018-08-11T09:11:45.346Z,3.00
2018-08-11T09:14:15.122Z,2.30
2018-08-11T09:16:44.527Z,3.17
2018-08-11T09:19:13.842Z,2.70
2018-08-11T09:21:43.420Z,3.03
2018-08-11T09:24:12.894Z,3.10
2018-08-11T09:26:42.215Z,2.90
2018-08-11T09:29:11.669Z,2.77
2018-08-11T09:31:41.097Z,2.47
2018-08-11T09:34:10.429Z,2.30
2018-08-11T09:36:40.378Z,2.80
2018-08-11T09:39:11.522Z,2.60
2018-08-11T09:41:44.177Z,2.73
2018-08-11T09:44:13.587Z,2.63
2018-08-11T09:46:43.005Z,3.60
2018-08-11T09:49:12.467Z,4.23
2018-08-11T09:51:42.129Z,3.10
2018-08-11T09:54:11.794Z,2.60
2018-08-11T09:56:41.308Z,2.60
2018-08-11T09:59:10.958Z,2.40
2018-08-11T10:01:45.429Z,2.63
2018-08-11T10:04:15.343Z,2.30
2018-08-11T10:06:44.698Z,2.50
2018-08-11T10:09:14.202Z,2.37
2018-08-11T10:11:43.510Z,2.50
2018-08-11T10:14:12.918Z,2.30
2018-08-11T10:16:42.307Z,2.47
2018-08-11T10:19:11.653Z,2.10
2018-08-11T10:21:40.924Z,2.37
2018-08-11T10:24:10.345Z,1.90
2018-08-11T10:26:39.678Z,2.00
2018-08-11T10:29:09.065Z,2.13
2018-08-11T10:31:38.824Z,2.27
2018-08-11T10:34:08.441Z,2.20
2018-08-11T10:36:37.856Z,2.07
2018-08-11T10:39:11.038Z,2.90
2018-08-11T10:41:40.952Z,2.20
2018-08-11T10:44:11.439Z,2.60
2018-08-11T10:46:41.187Z,2.60
2018-08-11T10:49:10.550Z,2.40
2018-08-11T10:51:40.245Z,2.10
2018-08-11T10:54:09.632Z,3.27
2018-08-11T10:56:38.969Z,2.00
2018-08-11T10:59:08.263Z,2.67
2018-08-11T11:01:37.680Z,2.03
2018-08-11T11:04:07.011Z,2.33
2018-08-11T11:06:36.454Z,2.17
2018-08-11T11:09:09.629Z,2.20
2018-08-11T11:11:39.227Z,2.10
2018-08-11T11:14:08.587Z,2.10
2018-08-11T11:16:38.571Z,1.77
2018-08-11T11:19:08.292Z,2.00
2018-08-11T11:21:37.649Z,1.73
2018-08-11T11:24:07.254Z,2.00
2018-08-11T11:26:36.667Z,1.70
2018-08-11T11:29:06.056Z,1.63
2018-08-11T11:31:35.886Z,1.60
2018-08-11T11:34:05.579Z,1.70
2018-08-11T11:36:35.003Z,1.60
2018-08-11T11:39:06.223Z,1.93
2018-08-11T11:41:38.738Z,1.40
2018-08-11T11:44:08.623Z,1.60
2018-08-11T11:46:38.018Z,1.77
2018-08-11T11:49:07.365Z,1.40
2018-08-11T11:51:37.127Z,1.60
2018-08-11T11:54:06.640Z,2.00
2018-08-11T11:56:36.061Z,1.70
2018-08-11T11:59:05.463Z,1.80
2018-08-11T12:01:34.823Z,1.70
2018-08-11T12:04:04.161Z,1.37
2018-08-11T12:06:33.529Z,1.30
2018-08-11T12:09:02.906Z,1.60
2018-08-11T12:11:32.451Z,1.40
2018-08-11T12:14:01.972Z,1.60
2018-08-11T12:16:31.315Z,1.70
2018-08-11T12:19:00.695Z,1.50
2018-08-11T12:21:30.045Z,1.80
2018-08-11T12:23:59.514Z,1.90
2018-08-11T12:26:28.892Z,1.70
2018-08-11T12:28:58.284Z,1.70
2018-08-11T12:31:27.603Z,1.90
2018-08-11T12:33:56.990Z,1.60
2018-08-11T12:36:26.527Z,1.90
2018-08-11T12:38:56.004Z,1.93
2018-08-11T12:41:25.371Z,1.40
2018-08-11T12:43:54.707Z,2.10
2018-08-11T12:46:24.035Z,2.20
2018-08-11T12:48:53.507Z,2.20
2018-08-11T12:51:22.840Z,1.80
2018-08-11T12:53:52.192Z,1.70
2018-08-11T12:56:21.567Z,1.33
2018-08-11T12:58:51.415Z,1.33
2018-08-11T13:01:20.716Z,0.93
2018-08-11T13:03:50.089Z,0.90
2018-08-11T13:06:19.635Z,1.20
2018-08-11T13:08:49.039Z,1.20
2018-08-11T13:11:18.398Z,1.13
2018-08-11T13:13:47.752Z,0.90
2018-08-11T13:16:17.136Z,1.10
2018-08-11T13:18:46.850Z,1.10
2018-08-11T13:21:16.531Z,0.80
2018-08-11T13:23:45.965Z,0.90
2018-08-11T13:26:15.434Z,1.00
2018-08-11T13:28:44.866Z,0.80
2018-08-11T13:31:14.224Z,1.00
2018-08-11T13:33:43.775Z,0.90
2018-08-11T13:36:13.261Z,1.97
2018-08-11T13:38:42.923Z,1.10
2018-08-11T13:41:12.299Z,1.10
2018-08-11T13:43:41.752Z,1.20
2018-08-11T13:46:11.105Z,1.20
2018-08-11T13:48:40.500Z,1.50
2018-08-11T13:51:09.933Z,1.70
2018-08-11T13:53:39.429Z,1.30
2018-08-11T13:56:08.872Z,1.17
2018-08-11T13:58:38.310Z,0.90
2018-08-11T14:01:07.786Z,1.20
2018-08-11T14:03:37.164Z,1.80
2018-08-11T14:06:06.901Z,1.00
2018-08-11T14:08:36.294Z,1.10
2018-08-11T14:11:06.149Z,1.00
2018-08-11T14:13:35.612Z,1.30
2018-08-11T14:16:04.951Z,1.20
2018-08-11T14:18:34.316Z,1.37
2018-08-11T14:21:03.711Z,0.93
2018-08-11T14:23:33.101Z,1.10
2018-08-11T14:26:02.590Z,1.30
2018-08-11T14:28:32.483Z,1.00
2018-08-11T14:31:01.922Z,1.03
2018-08-11T14:33:31.301Z,1.20
2018-08-11T14:36:00.795Z,1.20
2018-08-11T14:38:30.134Z,1.03
2018-08-11T14:40:59.663Z,1.67
2018-08-11T14:43:29.155Z,1.10
2018-08-11T14:45:58.675Z,0.90
2018-08-11T14:48:28.056Z,1.20
2018-08-11T14:50:57.825Z,1.13
2018-08-11T14:53:27.357Z,0.90
2018-08-11T14:55:56.714Z,1.20
2018-08-11T14:58:26.403Z,1.53
2018-08-11T15:00:55.742Z,1.00
2018-08-11T15:03:25.190Z,0.93
2018-08-11T15:05:54.591Z,1.10
2018-08-11T15:08:24.056Z,1.20
2018-08-11T15:10:53.507Z,0.97
2018-08-11T15:13:23.147Z,1.07
2018-08-11T15:15:52.765Z,0.97
2018-08-11T15:18:22.175Z,1.00
2018-08-11T15:20:51.579Z,1.10
2018-08-11T15:23:20.973Z,1.20
2018-08-11T15:25:50.376Z,0.90
2018-08-11T15:28:20.669Z,1.23
2018-08-11T15:30:50.131Z,1.30
2018-08-11T15:33:19.466Z,1.10
2018-08-11T15:35:48.937Z,0.90
2018-08-11T15:38:18.525Z,1.00
2018-08-11T15:40:47.952Z,1.40
2018-08-11T15:43:17.337Z,1.00
2018-08-11T15:45:46.724Z,1.13
2018-08-11T15:48:16.186Z,1.27
2018-08-11T15:50:45.599Z,1.20
2018-08-11T15:53:14.911Z,1.07
2018-08-11T15:55:44.318Z,1.30
2018-08-11T15:58:14.074Z,1.03
2018-08-11T16:00:43.566Z,1.50
2018-08-11T16:03:12.972Z,1.10
2018-08-11T16:05:42.566Z,1.60
2018-08-11T16:08:12.084Z,1.23
2018-08-11T16:10:41.597Z,1.73
2018-08-11T16:13:11.170Z,1.27
2018-08-11T16:15:40.645Z,1.17
2018-08-11T16:18:10.132Z,1.13
2018-08-11T16:20:39.594Z,1.20
2018-08-11T16:23:09.011Z,0.93
2018-08-11T16:25:38.463Z,0.90
2018-08-11T16:28:08.295Z,0.90
2018-08-11T16:30:37.673Z,0.90
2018-08-11T16:33:07.323Z,1.40
2018-08-11T16:35:36.910Z,1.20
2018-08-11T16:38:06.941Z,1.10
2018-08-11T16:40:36.315Z,0.87
2018-08-11T16:43:06.329Z,2.80
2018-08-11T16:45:35.723Z,2.70
2018-08-11T16:48:05.398Z,1.33
2018-08-11T16:50:34.904Z,1.50
2018-08-11T16:53:04.439Z,1.40
2018-08-11T16:55:35.046Z,1.10
2018-08-11T16:58:04.649Z,0.90
2018-08-11T17:00:34.440Z,4.30
2018-08-11T17:03:04.074Z,1.90
2018-08-11T17:05:33.575Z,2.87
2018-08-11T17:08:02.908Z,2.80
2018-08-11T17:10:32.197Z,2.60
2018-08-11T17:13:01.951Z,1.60
2018-08-11T17:15:31.347Z,1.63
2018-08-11T17:18:00.737Z,1.37
2018-08-11T17:20:30.119Z,1.60
2018-08-11T17:22:59.412Z,1.20
2018-08-11T17:25:28.751Z,1.17
2018-08-11T17:27:58.495Z,1.00
2018-08-11T17:30:28.207Z,1.00
2018-08-11T17:32:57.571Z,1.10
2018-08-11T17:35:26.981Z,1.30
2018-08-11T17:37:56.350Z,1.27
2018-08-11T17:40:25.785Z,1.50
2018-08-11T17:42:55.280Z,1.13
2018-08-11T17:45:24.862Z,1.53
2018-08-11T17:47:54.253Z,1.60
2018-08-11T17:50:24.668Z,1.50
2018-08-11T17:52:54.157Z,1.23
2018-08-11T17:55:23.649Z,1.50
2018-08-11T17:57:53.036Z,1.30
2018-08-11T18:00:22.614Z,2.10
2018-08-11T18:02:51.990Z,1.40
2018-08-11T18:05:21.578Z,2.00
2018-08-11T18:07:51.344Z,1.87
2018-08-11T18:10:20.691Z,1.40
2018-08-11T18:12:50.915Z,1.60
2018-08-11T18:15:20.276Z,1.33
2018-08-11T18:17:49.812Z,1.50
2018-08-11T18:20:19.337Z,1.20
2018-08-11T18:22:49.061Z,0.93
2018-08-11T18:25:18.428Z,1.47
2018-08-11T18:27:47.903Z,1.40
2018-08-11T18:30:17.239Z,1.13
2018-08-11T18:32:46.549Z,1.40
2018-08-11T18:35:15.967Z,1.10
2018-08-11T18:37:45.557Z,1.20
2018-08-11T18:40:15.030Z,1.30
2018-08-11T18:42:44.488Z,0.80
2018-08-11T18:45:13.968Z,1.30
2018-08-11T18:47:43.410Z,1.30
2018-08-11T18:50:12.790Z,1.50
2018-08-11T18:52:42.252Z,1.00
2018-08-11T18:55:11.991Z,1.30
2018-08-11T18:57:41.890Z,0.90
2018-08-11T19:00:16.682Z,0.80
2018-08-11T19:02:47.594Z,1.00
2018-08-11T19:05:16.899Z,1.40
2018-08-11T19:07:46.359Z,1.00
2018-08-11T19:10:15.835Z,0.97
2018-08-11T19:12:45.586Z,1.00
2018-08-11T19:15:15.255Z,0.90
2018-08-11T19:17:44.732Z,1.17
2018-08-11T19:20:15.030Z,1.40
2018-08-11T19:22:44.616Z,1.20
2018-08-11T19:25:14.682Z,1.40
2018-08-11T19:27:44.421Z,1.20
2018-08-11T19:30:13.784Z,0.97
2018-08-11T19:32:43.900Z,1.30
2018-08-11T19:35:13.239Z,1.60
2018-08-11T19:37:43.076Z,1.30
2018-08-11T19:40:12.654Z,1.20
2018-08-11T19:42:42.340Z,1.10
2018-08-11T19:45:12.682Z,1.60
2018-08-11T19:47:42.429Z,1.30
2018-08-11T19:50:12.853Z,1.10
2018-08-11T19:52:42.779Z,1.40
2018-08-11T19:55:12.212Z,1.40
2018-08-11T19:57:41.579Z,1.70
2018-08-11T20:00:14.470Z,2.20
2018-08-11T20:02:44.287Z,1.77
2018-08-11T20:05:13.779Z,1.93
2018-08-11T20:07:43.210Z,1.90
2018-08-11T20:10:12.582Z,1.90
2018-08-11T20:12:42.045Z,1.60
2018-08-11T20:15:11.422Z,1.80
2018-08-11T20:17:41.142Z,1.80
2018-08-11T20:20:11.318Z,1.33
2018-08-11T20:22:40.825Z,1.70
2018-08-11T20:25:10.543Z,1.30
2018-08-11T20:27:39.876Z,2.57
2018-08-11T20:30:11.116Z,1.30
2018-08-11T20:32:40.529Z,1.97
2018-08-11T20:35:09.912Z,1.40
2018-08-11T20:37:39.354Z,1.67
2018-08-11T20:40:08.843Z,1.67
2018-08-11T20:42:38.443Z,1.60
2018-08-11T20:45:10.090Z,1.60
2018-08-11T20:47:39.654Z,1.43
2018-08-11T20:50:09.618Z,1.67
2018-08-11T20:52:39.430Z,1.80
2018-08-11T20:55:09.504Z,1.70
2018-08-11T20:57:38.884Z,1.23
2018-08-11T21:00:13.321Z,1.60
2018-08-11T21:02:43.169Z,1.70
2018-08-11T21:05:13.803Z,1.40
2018-08-11T21:07:43.144Z,1.70
2018-08-11T21:10:15.228Z,1.37
2018-08-11T21:12:45.547Z,1.57
2018-08-11T21:15:15.470Z,1.47
2018-08-11T21:17:45.506Z,1.30
2018-08-11T21:20:15.624Z,1.70
2018-08-11T21:22:45.035Z,1.40
2018-08-11T21:25:14.468Z,1.50
2018-08-11T21:27:44.473Z,1.30
2018-08-11T21:30:15.319Z,1.60
2018-08-11T21:32:44.775Z,1.63
2018-08-11T21:35:14.162Z,2.20
2018-08-11T21:37:43.617Z,1.50
2018-08-11T21:40:15.081Z,1.70
2018-08-11T21:42:45.327Z,1.50
2018-08-11T21:45:14.895Z,1.70
2018-08-11T21:47:44.318Z,1.70
2018-08-11T21:50:13.748Z,2.00
2018-08-11T21:52:43.274Z,1.50
2018-08-11T21:55:12.636Z,1.50
2018-08-11T21:57:42.175Z,1.80
2018-08-11T22:00:29.936Z,1.40
2018-08-11T22:03:00.901Z,1.83
2018-08-11T22:05:30.419Z,1.90
2018-08-11T22:08:00.800Z,2.00
2018-08-11T22:10:30.523Z,2.20
2018-08-11T22:12:59.980Z,2.10
2018-08-11T22:15:29.368Z,2.00
2018-08-11T22:18:01.889Z,2.03
2018-08-11T22:20:31.342Z,1.97
2018-08-11T22:23:01.205Z,1.87
2018-08-11T22:25:31.024Z,2.03
2018-08-11T22:28:00.612Z,2.57
2018-08-11T22:30:29.995Z,1.90
2018-08-11T22:32:59.334Z,2.20
2018-08-11T22:35:28.715Z,2.97
2018-08-11T22:37:58.132Z,5.43
2018-08-11T22:40:27.731Z,3.00
2018-08-11T22:42:57.513Z,2.10
2018-08-11T22:45:27.383Z,2.03
2018-08-11T22:47:56.952Z,1.73
2018-08-11T22:50:26.285Z,2.17
2018-08-11T22:52:55.639Z,2.00
2018-08-11T22:55:25.100Z,2.03
2018-08-11T22:57:54.688Z,2.30
2018-08-11T23:00:24.201Z,2.20
2018-08-11T23:02:53.709Z,2.60
2018-08-11T23:05:23.926Z,2.33
2018-08-11T23:07:53.423Z,2.43
2018-08-11T23:10:22.788Z,2.50
2018-08-11T23:12:52.286Z,2.90
2018-08-11T23:15:22.111Z,2.77
2018-08-11T23:17:51.693Z,2.93
2018-08-11T23:20:21.045Z,2.70
2018-08-11T23:22:50.381Z,2.93
2018-08-11T23:25:19.711Z,3.10
2018-08-11T23:27:49.051Z,3.30
2018-08-11T23:30:19.095Z,2.73
2018-08-11T23:32:48.468Z,2.77
2018-08-11T23:35:17.807Z,3.33
2018-08-11T23:37:47.236Z,2.70
2018-08-11T23:40:16.569Z,2.20
2018-08-11T23:42:46.162Z,2.00
2018-08-11T23:45:16.699Z,3.07
2018-08-11T23:47:46.073Z,2.70
2018-08-11T23:50:15.854Z,2.70
2018-08-11T23:52:46.340Z,2.67
2018-08-11T23:55:16.153Z,3.30
2018-08-11T23:57:45.530Z,2.30
